sensor_id;sensor_type;location;lat;lon;timestamp;pressure;altitude;pressure_sealevel;temperature;humidity
75604;BME280;64187;51.010;13.792;2024-02-04T00:01:03;100578.78;;;9.66;82.71
75604;BME280;64187;51.010;13.792;2024-02-04T00:06:02;100590.50;;;9.60;82.50
75604;BME280;64187;51.010;13.792;2024-02-04T00:11:01;100586.41;;;9.69;82.63
75604;BME280;64187;51.010;13.792;2024-02-04T00:15:59;100595.91;;;9.60;83.49
75604;BME280;64187;51.010;13.792;2024-02-04T00:20:59;100584.19;;;9.66;84.41
75604;BME280;64187;51.010;13.792;2024-02-04T00:25:58;100575.50;;;9.46;86.10
75604;BME280;64187;51.010;13.792;2024-02-04T00:30:56;100577.59;;;9.44;88.32
75604;BME280;64187;51.010;13.792;2024-02-04T00:35:57;100572.66;;;9.41;88.32
75604;BME280;64187;51.010;13.792;2024-02-04T00:40:56;100581.84;;;9.40;87.70
75604;BME280;64187;51.010;13.792;2024-02-04T00:45:55;100589.63;;;9.48;86.73
75604;BME280;64187;51.010;13.792;2024-02-04T00:50:55;100603.13;;;9.48;86.81
75604;BME280;64187;51.010;13.792;2024-02-04T00:55:54;100622.91;;;9.30;90.08
75604;BME280;64187;51.010;13.792;2024-02-04T01:00:53;100593.41;;;9.10;92.98
75604;BME280;64187;51.010;13.792;2024-02-04T01:05:52;100581.66;;;9.04;92.12
75604;BME280;64187;51.010;13.792;2024-02-04T01:10:50;100579.63;;;9.00;90.94
75604;BME280;64187;51.010;13.792;2024-02-04T01:15:49;100582.94;;;9.02;89.08
75604;BME280;64187;51.010;13.792;2024-02-04T01:20:48;100580.38;;;9.07;87.99
75604;BME280;64187;51.010;13.792;2024-02-04T01:25:47;100577.06;;;9.05;86.73
75604;BME280;64187;51.010;13.792;2024-02-04T01:30:46;100595.94;;;9.23;85.94
75604;BME280;64187;51.010;13.792;2024-02-04T01:35:45;100587.56;;;9.13;86.50
75604;BME280;64187;51.010;13.792;2024-02-04T01:40:44;100591.75;;;9.09;85.96
75604;BME280;64187;51.010;13.792;2024-02-04T01:45:45;100582.69;;;9.03;85.63
75604;BME280;64187;51.010;13.792;2024-02-04T01:50:44;100580.44;;;9.00;85.72
75604;BME280;64187;51.010;13.792;2024-02-04T01:55:43;100591.09;;;8.95;85.54
75604;BME280;64187;51.010;13.792;2024-02-04T02:00:42;100579.59;;;8.81;85.49
75604;BME280;64187;51.010;13.792;2024-02-04T02:05:42;100585.63;;;8.83;85.20
75604;BME280;64187;51.010;13.792;2024-02-04T02:10:41;100575.13;;;8.75;85.71
75604;BME280;64187;51.010;13.792;2024-02-04T02:15:48;100570.19;;;8.72;85.86
75604;BME280;64187;51.010;13.792;2024-02-04T02:26:06;100555.97;;;8.77;86.42
75604;BME280;64187;51.010;13.792;2024-02-04T02:31:05;100534.03;;;8.73;87.05
75604;BME280;64187;51.010;13.792;2024-02-04T02:36:13;100552.41;;;8.83;87.00
75604;BME280;64187;51.010;13.792;2024-02-04T02:41:16;100546.19;;;8.82;87.62
75604;BME280;64187;51.010;13.792;2024-02-04T02:46:18;100554.88;;;9.03;87.21
75604;BME280;64187;51.010;13.792;2024-02-04T02:51:17;100559.81;;;9.06;87.35
75604;BME280;64187;51.010;13.792;2024-02-04T02:56:16;100549.94;;;9.00;87.81
75604;BME280;64187;51.010;13.792;2024-02-04T03:01:15;100531.38;;;9.22;86.88
75604;BME280;64187;51.010;13.792;2024-02-04T03:06:14;100538.41;;;9.23;86.85
75604;BME280;64187;51.010;13.792;2024-02-04T03:11:12;100539.78;;;9.14;87.25
75604;BME280;64187;51.010;13.792;2024-02-04T03:16:12;100538.75;;;9.26;86.62
75604;BME280;64187;51.010;13.792;2024-02-04T03:21:15;100536.31;;;9.06;89.35
75604;BME280;64187;51.010;13.792;2024-02-04T03:26:17;100537.47;;;8.99;89.16
75604;BME280;64187;51.010;13.792;2024-02-04T03:31:21;100536.09;;;9.08;90.09
75604;BME280;64187;51.010;13.792;2024-02-04T03:36:22;100547.50;;;9.10;89.32
75604;BME280;64187;51.010;13.792;2024-02-04T03:41:23;100554.56;;;8.93;88.06
75604;BME280;64187;51.010;13.792;2024-02-04T03:46:22;100558.91;;;8.94;89.29
75604;BME280;64187;51.010;13.792;2024-02-04T03:51:21;100560.66;;;8.88;89.95
75604;BME280;64187;51.010;13.792;2024-02-04T03:56:20;100556.38;;;8.80;90.10
75604;BME280;64187;51.010;13.792;2024-02-04T04:01:19;100556.59;;;8.60;90.82
75604;BME280;64187;51.010;13.792;2024-02-04T04:06:18;100564.44;;;8.62;90.35
75604;BME280;64187;51.010;13.792;2024-02-04T04:11:17;100559.00;;;8.69;90.36
75604;BME280;64187;51.010;13.792;2024-02-04T04:16:20;100537.91;;;8.59;90.93
75604;BME280;64187;51.010;13.792;2024-02-04T04:21:19;100526.25;;;8.65;89.87
75604;BME280;64187;51.010;13.792;2024-02-04T04:26:18;100533.22;;;8.73;89.14
75604;BME280;64187;51.010;13.792;2024-02-04T04:31:17;100518.41;;;8.94;88.36
75604;BME280;64187;51.010;13.792;2024-02-04T04:36:16;100522.59;;;9.08;87.41
75604;BME280;64187;51.010;13.792;2024-02-04T04:41:16;100517.72;;;9.17;86.36
75604;BME280;64187;51.010;13.792;2024-02-04T04:46:14;100518.56;;;9.17;86.09
75604;BME280;64187;51.010;13.792;2024-02-04T04:51:13;100524.22;;;9.27;85.14
75604;BME280;64187;51.010;13.792;2024-02-04T04:56:12;100525.13;;;9.21;85.05
75604;BME280;64187;51.010;13.792;2024-02-04T05:01:11;100523.50;;;9.20;85.17
75604;BME280;64187;51.010;13.792;2024-02-04T05:06:10;100516.19;;;9.39;83.80
75604;BME280;64187;51.010;13.792;2024-02-04T05:11:09;100490.31;;;9.32;83.47
75604;BME280;64187;51.010;13.792;2024-02-04T05:16:07;100498.84;;;9.28;83.79
75604;BME280;64187;51.010;13.792;2024-02-04T05:21:06;100500.94;;;9.26;84.09
75604;BME280;64187;51.010;13.792;2024-02-04T05:26:05;100490.69;;;9.47;83.41
75604;BME280;64187;51.010;13.792;2024-02-04T05:31:04;100473.84;;;9.33;84.73
75604;BME280;64187;51.010;13.792;2024-02-04T05:36:03;100485.03;;;9.37;84.67
75604;BME280;64187;51.010;13.792;2024-02-04T05:41:02;100483.97;;;9.38;85.38
75604;BME280;64187;51.010;13.792;2024-02-04T05:46:01;100489.25;;;9.33;85.98
75604;BME280;64187;51.010;13.792;2024-02-04T05:51:00;100459.72;;;9.19;87.40
75604;BME280;64187;51.010;13.792;2024-02-04T05:55:59;100447.03;;;9.20;87.97
75604;BME280;64187;51.010;13.792;2024-02-04T06:00:58;100452.41;;;9.08;88.11
75604;BME280;64187;51.010;13.792;2024-02-04T06:05:57;100441.78;;;9.25;86.30
75604;BME280;64187;51.010;13.792;2024-02-04T06:10:56;100461.50;;;9.25;86.64
75604;BME280;64187;51.010;13.792;2024-02-04T06:15:54;100469.47;;;9.20;88.00
75604;BME280;64187;51.010;13.792;2024-02-04T06:20:53;100461.88;;;9.41;88.02
75604;BME280;64187;51.010;13.792;2024-02-04T06:25:52;100453.25;;;9.20;90.57
75604;BME280;64187;51.010;13.792;2024-02-04T06:30:51;100455.56;;;9.05;92.64
75604;BME280;64187;51.010;13.792;2024-02-04T06:35:50;100439.81;;;9.02;93.81
75604;BME280;64187;51.010;13.792;2024-02-04T06:40:49;100417.63;;;9.00;94.00
75604;BME280;64187;51.010;13.792;2024-02-04T06:45:48;100412.78;;;8.90;94.48
75604;BME280;64187;51.010;13.792;2024-02-04T06:50:47;100424.78;;;9.06;92.51
75604;BME280;64187;51.010;13.792;2024-02-04T06:55:46;100417.69;;;9.23;91.15
75604;BME280;64187;51.010;13.792;2024-02-04T07:00:46;100422.13;;;9.18;89.05
75604;BME280;64187;51.010;13.792;2024-02-04T07:05:45;100433.94;;;9.35;87.48
75604;BME280;64187;51.010;13.792;2024-02-04T07:10:45;100400.22;;;9.38;87.21
75604;BME280;64187;51.010;13.792;2024-02-04T07:15:45;100396.94;;;9.47;87.69
75604;BME280;64187;51.010;13.792;2024-02-04T07:20:43;100398.59;;;9.60;88.14
75604;BME280;64187;51.010;13.792;2024-02-04T07:25:42;100405.66;;;9.73;86.50
75604;BME280;64187;51.010;13.792;2024-02-04T07:30:42;100403.66;;;9.68;86.75
75604;BME280;64187;51.010;13.792;2024-02-04T07:35:40;100411.56;;;9.82;85.78
75604;BME280;64187;51.010;13.792;2024-02-04T07:40:39;100407.19;;;9.92;84.91
75604;BME280;64187;51.010;13.792;2024-02-04T07:45:38;100391.66;;;10.00;84.86
75604;BME280;64187;51.010;13.792;2024-02-04T07:50:37;100390.97;;;10.04;83.97
75604;BME280;64187;51.010;13.792;2024-02-04T07:55:36;100386.03;;;10.01;84.91
75604;BME280;64187;51.010;13.792;2024-02-04T08:00:35;100386.38;;;10.17;83.08
75604;BME280;64187;51.010;13.792;2024-02-04T08:05:34;100372.72;;;10.92;88.55
75604;BME280;64187;51.010;13.792;2024-02-04T08:10:34;100376.09;;;12.01;77.51
75604;BME280;64187;51.010;13.792;2024-02-04T08:15:33;100386.78;;;11.57;76.51
75604;BME280;64187;51.010;13.792;2024-02-04T08:20:32;100381.09;;;11.08;76.84
75604;BME280;64187;51.010;13.792;2024-02-04T08:25:31;100382.44;;;10.76;77.33
75604;BME280;64187;51.010;13.792;2024-02-04T08:30:30;100373.31;;;10.66;78.34
75604;BME280;64187;51.010;13.792;2024-02-04T08:35:29;100371.84;;;10.75;77.21
75604;BME280;64187;51.010;13.792;2024-02-04T08:40:28;100375.75;;;10.67;77.92
75604;BME280;64187;51.010;13.792;2024-02-04T08:45:27;100390.91;;;10.80;77.58
75604;BME280;64187;51.010;13.792;2024-02-04T08:50:26;100383.34;;;10.82;77.39
75604;BME280;64187;51.010;13.792;2024-02-04T08:55:25;100388.91;;;10.75;77.64
75604;BME280;64187;51.010;13.792;2024-02-04T09:00:24;100400.09;;;10.79;78.49
75604;BME280;64187;51.010;13.792;2024-02-04T09:05:23;100396.47;;;10.73;78.73
75604;BME280;64187;51.010;13.792;2024-02-04T09:10:22;100409.56;;;10.65;79.91
75604;BME280;64187;51.010;13.792;2024-02-04T09:15:21;100399.50;;;10.48;81.57
75604;BME280;64187;51.010;13.792;2024-02-04T09:20:19;100418.91;;;10.45;83.77
75604;BME280;64187;51.010;13.792;2024-02-04T09:25:19;100422.69;;;10.21;85.91
75604;BME280;64187;51.010;13.792;2024-02-04T09:30:18;100423.63;;;10.26;86.87
75604;BME280;64187;51.010;13.792;2024-02-04T09:35:17;100413.03;;;10.13;88.96
75604;BME280;64187;51.010;13.792;2024-02-04T09:40:17;100393.56;;;9.99;88.74
75604;BME280;64187;51.010;13.792;2024-02-04T09:45:16;100410.59;;;10.11;88.82
75604;BME280;64187;51.010;13.792;2024-02-04T09:50:16;100406.69;;;10.19;86.22
75604;BME280;64187;51.010;13.792;2024-02-04T09:55:20;100414.59;;;10.09;85.96
75604;BME280;64187;51.010;13.792;2024-02-04T10:00:23;100399.28;;;10.14;86.81
75604;BME280;64187;51.010;13.792;2024-02-04T10:05:24;100398.56;;;10.31;86.42
75604;BME280;64187;51.010;13.792;2024-02-04T10:10:23;100404.09;;;10.24;86.59
75604;BME280;64187;51.010;13.792;2024-02-04T10:15:30;100382.47;;;10.24;87.05
75604;BME280;64187;51.010;13.792;2024-02-04T10:20:29;100372.94;;;10.22;87.27
75604;BME280;64187;51.010;13.792;2024-02-04T10:25:28;100377.06;;;10.24;87.32
75604;BME280;64187;51.010;13.792;2024-02-04T10:30:27;100356.59;;;10.17;87.16
75604;BME280;64187;51.010;13.792;2024-02-04T10:35:26;100346.69;;;10.22;86.97
75604;BME280;64187;51.010;13.792;2024-02-04T10:40:25;100337.66;;;10.28;87.41
75604;BME280;64187;51.010;13.792;2024-02-04T10:45:26;100326.09;;;10.33;87.53
75604;BME280;64187;51.010;13.792;2024-02-04T10:50:30;100319.41;;;10.35;87.53
75604;BME280;64187;51.010;13.792;2024-02-04T10:55:31;100312.31;;;10.46;86.09
75604;BME280;64187;51.010;13.792;2024-02-04T11:00:32;100298.19;;;10.44;84.64
75604;BME280;64187;51.010;13.792;2024-02-04T11:05:33;100306.81;;;10.41;84.26
75604;BME280;64187;51.010;13.792;2024-02-04T11:10:35;100308.63;;;10.52;84.96
75604;BME280;64187;51.010;13.792;2024-02-04T11:15:36;100299.78;;;10.57;86.50
75604;BME280;64187;51.010;13.792;2024-02-04T11:25:47;100271.31;;;10.54;86.09
75604;BME280;64187;51.010;13.792;2024-02-04T11:30:48;100268.72;;;10.76;82.54
75604;BME280;64187;51.010;13.792;2024-02-04T11:36:03;100244.91;;;10.62;82.21
75604;BME280;64187;51.010;13.792;2024-02-04T11:41:03;100257.81;;;10.71;81.53
75604;BME280;64187;51.010;13.792;2024-02-04T11:46:06;100255.50;;;10.63;81.06
75604;BME280;64187;51.010;13.792;2024-02-04T11:51:05;100260.72;;;10.53;81.58
75604;BME280;64187;51.010;13.792;2024-02-04T11:56:05;100251.19;;;10.33;82.68
75604;BME280;64187;51.010;13.792;2024-02-04T12:01:05;100243.00;;;10.45;81.91
75604;BME280;64187;51.010;13.792;2024-02-04T12:06:04;100237.84;;;10.61;81.93
75604;BME280;64187;51.010;13.792;2024-02-04T12:11:04;100234.06;;;10.45;80.46
75604;BME280;64187;51.010;13.792;2024-02-04T12:16:04;100220.78;;;10.60;80.02
75604;BME280;64187;51.010;13.792;2024-02-04T12:21:04;100217.19;;;10.71;79.79
75604;BME280;64187;51.010;13.792;2024-02-04T12:26:03;100205.47;;;10.66;79.41
75604;BME280;64187;51.010;13.792;2024-02-04T12:31:02;100192.03;;;10.71;78.83
75604;BME280;64187;51.010;13.792;2024-02-04T12:36:02;100186.25;;;10.84;78.82
75604;BME280;64187;51.010;13.792;2024-02-04T12:41:02;100182.16;;;10.82;77.64
75604;BME280;64187;51.010;13.792;2024-02-04T12:46:01;100180.41;;;10.92;78.47
75604;BME280;64187;51.010;13.792;2024-02-04T12:51:02;100185.09;;;10.97;76.84
75604;BME280;64187;51.010;13.792;2024-02-04T12:56:02;100181.88;;;11.17;75.32
75604;BME280;64187;51.010;13.792;2024-02-04T13:01:01;100168.47;;;11.10;74.44
75604;BME280;64187;51.010;13.792;2024-02-04T13:06:01;100186.22;;;11.18;73.77
75604;BME280;64187;51.010;13.792;2024-02-04T13:11:00;100162.53;;;11.30;73.82
75604;BME280;64187;51.010;13.792;2024-02-04T13:15:59;100165.56;;;11.34;73.06
75604;BME280;64187;51.010;13.792;2024-02-04T13:20:58;100157.63;;;11.27;73.26
75604;BME280;64187;51.010;13.792;2024-02-04T13:25:57;100168.72;;;11.48;72.65
75604;BME280;64187;51.010;13.792;2024-02-04T13:30:56;100175.97;;;11.42;72.30
75604;BME280;64187;51.010;13.792;2024-02-04T13:35:55;100185.03;;;11.31;72.73
75604;BME280;64187;51.010;13.792;2024-02-04T13:40:54;100195.81;;;11.26;74.21
75604;BME280;64187;51.010;13.792;2024-02-04T13:45:53;100211.53;;;11.07;78.04
75604;BME280;64187;51.010;13.792;2024-02-04T13:50:52;100192.91;;;10.93;77.89
75604;BME280;64187;51.010;13.792;2024-02-04T13:55:53;100203.75;;;10.93;77.78
75604;BME280;64187;51.010;13.792;2024-02-04T14:00:55;100203.66;;;10.88;77.96
75604;BME280;64187;51.010;13.792;2024-02-04T14:05:54;100219.72;;;10.95;78.00
75604;BME280;64187;51.010;13.792;2024-02-04T14:10:53;100215.00;;;10.68;79.42
75604;BME280;64187;51.010;13.792;2024-02-04T14:15:52;100248.19;;;10.47;81.12
75604;BME280;64187;51.010;13.792;2024-02-04T14:20:51;100258.47;;;10.33;82.37
75604;BME280;64187;51.010;13.792;2024-02-04T14:25:50;100252.47;;;10.31;81.86
75604;BME280;64187;51.010;13.792;2024-02-04T14:30:49;100241.09;;;10.17;80.97
75604;BME280;64187;51.010;13.792;2024-02-04T14:35:48;100228.97;;;10.20;79.89
75604;BME280;64187;51.010;13.792;2024-02-04T14:40:47;100223.66;;;10.25;78.10
75604;BME280;64187;51.010;13.792;2024-02-04T14:45:48;100226.88;;;10.22;77.02
75604;BME280;64187;51.010;13.792;2024-02-04T14:50:47;100228.00;;;10.26;75.61
75604;BME280;64187;51.010;13.792;2024-02-04T14:55:46;100227.59;;;10.17;74.21
75604;BME280;64187;51.010;13.792;2024-02-04T15:00:45;100239.63;;;10.09;74.09
75604;BME280;64187;51.010;13.792;2024-02-04T15:05:45;100233.63;;;10.07;73.90
75604;BME280;64187;51.010;13.792;2024-02-04T15:10:43;100239.84;;;10.08;74.16
75604;BME280;64187;51.010;13.792;2024-02-04T15:15:42;100246.06;;;10.08;74.36
75604;BME280;64187;51.010;13.792;2024-02-04T15:20:42;100250.69;;;9.96;75.86
75604;BME280;64187;51.010;13.792;2024-02-04T15:25:41;100250.25;;;9.87;77.30
75604;BME280;64187;51.010;13.792;2024-02-04T15:30:40;100258.97;;;9.78;77.61
75604;BME280;64187;51.010;13.792;2024-02-04T15:35:39;100243.63;;;9.55;79.49
75604;BME280;64187;51.010;13.792;2024-02-04T15:40:39;100256.44;;;9.47;79.77
75604;BME280;64187;51.010;13.792;2024-02-04T15:45:38;100247.41;;;9.42;79.47
75604;BME280;64187;51.010;13.792;2024-02-04T15:50:37;100242.81;;;9.42;80.32
75604;BME280;64187;51.010;13.792;2024-02-04T15:55:37;100234.84;;;9.36;81.40
75604;BME280;64187;51.010;13.792;2024-02-04T16:00:36;100242.13;;;9.23;81.42
75604;BME280;64187;51.010;13.792;2024-02-04T16:05:35;100247.53;;;9.23;81.42
75604;BME280;64187;51.010;13.792;2024-02-04T16:10:34;100251.75;;;9.31;81.90
75604;BME280;64187;51.010;13.792;2024-02-04T16:15:34;100249.06;;;9.19;81.58
75604;BME280;64187;51.010;13.792;2024-02-04T16:20:33;100250.34;;;9.28;81.13
75604;BME280;64187;51.010;13.792;2024-02-04T16:25:37;100251.63;;;9.26;80.84
75604;BME280;64187;51.010;13.792;2024-02-04T16:30:36;100244.22;;;9.45;79.63
75604;BME280;64187;51.010;13.792;2024-02-04T16:35:35;100242.56;;;9.44;79.15
75604;BME280;64187;51.010;13.792;2024-02-04T16:40:35;100239.91;;;9.32;79.55
75604;BME280;64187;51.010;13.792;2024-02-04T16:45:34;100231.53;;;9.34;80.52
75604;BME280;64187;51.010;13.792;2024-02-04T16:50:33;100230.28;;;9.24;80.73
75604;BME280;64187;51.010;13.792;2024-02-04T16:55:32;100224.63;;;9.26;82.27
75604;BME280;64187;51.010;13.792;2024-02-04T17:00:31;100254.34;;;9.14;84.04
75604;BME280;64187;51.010;13.792;2024-02-04T17:05:31;100238.38;;;9.01;86.63
75604;BME280;64187;51.010;13.792;2024-02-04T17:10:48;100247.41;;;8.95;89.53
75604;BME280;64187;51.010;13.792;2024-02-04T17:15:48;100245.47;;;8.72;91.92
75604;BME280;64187;51.010;13.792;2024-02-04T17:20:51;100231.06;;;8.78;92.53
75604;BME280;64187;51.010;13.792;2024-02-04T17:26:00;100229.19;;;8.78;92.84
75604;BME280;64187;51.010;13.792;2024-02-04T17:31:00;100219.00;;;8.80;94.09
75604;BME280;64187;51.010;13.792;2024-02-04T17:35:59;100219.81;;;8.81;93.64
75604;BME280;64187;51.010;13.792;2024-02-04T17:40:58;100224.50;;;8.86;93.80
75604;BME280;64187;51.010;13.792;2024-02-04T17:45:57;100224.63;;;8.91;92.70
75604;BME280;64187;51.010;13.792;2024-02-04T17:50:56;100213.13;;;8.83;92.56
75604;BME280;64187;51.010;13.792;2024-02-04T17:56:07;100217.81;;;8.76;92.77
75604;BME280;64187;51.010;13.792;2024-02-04T18:01:06;100201.72;;;8.58;93.82
75604;BME280;64187;51.010;13.792;2024-02-04T18:06:05;100192.91;;;8.74;92.86
75604;BME280;64187;51.010;13.792;2024-02-04T18:11:14;100193.66;;;8.70;93.22
75604;BME280;64187;51.010;13.792;2024-02-04T18:16:14;100189.97;;;8.64;92.14
75604;BME280;64187;51.010;13.792;2024-02-04T18:21:23;100186.56;;;8.57;93.55
75604;BME280;64187;51.010;13.792;2024-02-04T18:26:30;100182.72;;;8.76;93.58
75604;BME280;64187;51.010;13.792;2024-02-04T18:31:31;100211.25;;;8.96;92.76
75604;BME280;64187;51.010;13.792;2024-02-04T18:36:31;100209.50;;;9.13;92.19
75604;BME280;64187;51.010;13.792;2024-02-04T18:41:30;100199.66;;;9.07;93.06
75604;BME280;64187;51.010;13.792;2024-02-04T18:46:29;100192.56;;;8.94;93.14
75604;BME280;64187;51.010;13.792;2024-02-04T18:51:27;100214.53;;;8.98;93.29
75604;BME280;64187;51.010;13.792;2024-02-04T18:56:27;100206.53;;;8.91;93.93
75604;BME280;64187;51.010;13.792;2024-02-04T19:01:27;100177.56;;;8.63;96.58
75604;BME280;64187;51.010;13.792;2024-02-04T19:06:29;100168.31;;;8.82;96.95
75604;BME280;64187;51.010;13.792;2024-02-04T19:11:29;100166.06;;;8.68;93.90
75604;BME280;64187;51.010;13.792;2024-02-04T19:16:32;100186.59;;;8.80;92.23
75604;BME280;64187;51.010;13.792;2024-02-04T19:21:31;100180.84;;;8.65;92.57
75604;BME280;64187;51.010;13.792;2024-02-04T19:26:30;100167.81;;;8.74;90.98
75604;BME280;64187;51.010;13.792;2024-02-04T19:31:29;100169.81;;;8.67;92.25
75604;BME280;64187;51.010;13.792;2024-02-04T19:36:28;100159.97;;;8.72;92.73
75604;BME280;64187;51.010;13.792;2024-02-04T19:41:27;100160.41;;;8.69;93.30
75604;BME280;64187;51.010;13.792;2024-02-04T19:46:27;100158.78;;;8.68;94.25
75604;BME280;64187;51.010;13.792;2024-02-04T19:51:26;100133.66;;;8.56;95.65
75604;BME280;64187;51.010;13.792;2024-02-04T19:56:25;100133.00;;;8.72;94.29
75604;BME280;64187;51.010;13.792;2024-02-04T20:01:24;100124.28;;;8.47;94.93
75604;BME280;64187;51.010;13.792;2024-02-04T20:06:23;100111.72;;;8.64;94.09
75604;BME280;64187;51.010;13.792;2024-02-04T20:11:22;100120.19;;;8.56;94.17
75604;BME280;64187;51.010;13.792;2024-02-04T20:16:22;100124.06;;;8.48;94.88
75604;BME280;64187;51.010;13.792;2024-02-04T20:21:22;100118.16;;;8.39;95.81
75604;BME280;64187;51.010;13.792;2024-02-04T20:26:21;100113.00;;;8.38;95.98
75604;BME280;64187;51.010;13.792;2024-02-04T20:31:20;100132.25;;;8.53;96.01
75604;BME280;64187;51.010;13.792;2024-02-04T20:36:19;100141.88;;;8.61;95.53
75604;BME280;64187;51.010;13.792;2024-02-04T20:41:18;100126.34;;;8.33;98.42
75604;BME280;64187;51.010;13.792;2024-02-04T20:46:17;100123.81;;;8.50;97.49
75604;BME280;64187;51.010;13.792;2024-02-04T20:51:16;100128.56;;;8.24;99.47
75604;BME280;64187;51.010;13.792;2024-02-04T20:56:15;100104.94;;;8.50;98.57
75604;BME280;64187;51.010;13.792;2024-02-04T21:01:14;100095.44;;;8.47;100.00
75604;BME280;64187;51.010;13.792;2024-02-04T21:06:17;100098.94;;;8.71;98.74
75604;BME280;64187;51.010;13.792;2024-02-04T21:11:22;100090.63;;;8.49;99.41
75604;BME280;64187;51.010;13.792;2024-02-04T21:16:21;100067.16;;;8.85;99.18
75604;BME280;64187;51.010;13.792;2024-02-04T21:21:21;100062.06;;;8.89;98.31
75604;BME280;64187;51.010;13.792;2024-02-04T21:26:20;100062.44;;;8.80;99.67
75604;BME280;64187;51.010;13.792;2024-02-04T21:31:19;100045.34;;;9.15;96.70
75604;BME280;64187;51.010;13.792;2024-02-04T21:36:19;100031.59;;;8.76;98.15
75604;BME280;64187;51.010;13.792;2024-02-04T21:41:18;100009.66;;;8.84;97.91
75604;BME280;64187;51.010;13.792;2024-02-04T21:46:17;99995.50;;;8.94;98.33
75604;BME280;64187;51.010;13.792;2024-02-04T21:51:17;99983.94;;;9.22;97.41
75604;BME280;64187;51.010;13.792;2024-02-04T21:56:17;99989.66;;;9.26;97.05
75604;BME280;64187;51.010;13.792;2024-02-04T22:01:16;99970.28;;;9.00;99.50
75604;BME280;64187;51.010;13.792;2024-02-04T22:06:15;99972.22;;;9.34;98.71
75604;BME280;64187;51.010;13.792;2024-02-04T22:11:14;99953.72;;;9.25;100.00
75604;BME280;64187;51.010;13.792;2024-02-04T22:16:13;99952.72;;;9.60;99.92
75604;BME280;64187;51.010;13.792;2024-02-04T22:21:21;99950.75;;;9.73;98.34
75604;BME280;64187;51.010;13.792;2024-02-04T22:26:20;99939.69;;;9.74;98.32
75604;BME280;64187;51.010;13.792;2024-02-04T22:31:19;99921.59;;;9.75;98.63
75604;BME280;64187;51.010;13.792;2024-02-04T22:36:18;99912.31;;;9.87;96.72
75604;BME280;64187;51.010;13.792;2024-02-04T22:41:17;99908.59;;;9.93;96.19
75604;BME280;64187;51.010;13.792;2024-02-04T22:46:16;99913.94;;;10.05;95.21
75604;BME280;64187;51.010;13.792;2024-02-04T22:51:15;99897.53;;;10.12;94.46
75604;BME280;64187;51.010;13.792;2024-02-04T22:56:13;99897.63;;;10.00;95.33
75604;BME280;64187;51.010;13.792;2024-02-04T23:01:12;99901.66;;;9.98;97.96
75604;BME280;64187;51.010;13.792;2024-02-04T23:06:11;99903.91;;;10.06;97.04
75604;BME280;64187;51.010;13.792;2024-02-04T23:11:10;99912.81;;;10.01;96.82
75604;BME280;64187;51.010;13.792;2024-02-04T23:16:09;99906.38;;;10.07;96.10
75604;BME280;64187;51.010;13.792;2024-02-04T23:21:08;99893.28;;;10.16;93.86
75604;BME280;64187;51.010;13.792;2024-02-04T23:26:07;99892.00;;;10.24;92.33
75604;BME280;64187;51.010;13.792;2024-02-04T23:31:06;99892.41;;;10.32;91.61
75604;BME280;64187;51.010;13.792;2024-02-04T23:36:05;99875.28;;;10.27;92.71
75604;BME280;64187;51.010;13.792;2024-02-04T23:41:04;99882.66;;;10.31;92.10
75604;BME280;64187;51.010;13.792;2024-02-04T23:46:03;99887.00;;;10.32;92.01
75604;BME280;64187;51.010;13.792;2024-02-04T23:51:02;99897.44;;;10.24;92.18
75604;BME280;64187;51.010;13.792;2024-02-04T23:56:01;99873.50;;;10.16;93.52
